Latest Weather Observations for Parafield

IDS60901

Issued at 7:51 am CDT Monday 27 February 2017 (issued every 10 minutes, with the page automatically refreshed every 10 minutes)

About weather observations | Map of Adelaide area stations | Latest observations for Adelaide area | Other Formats
Station Details ID: 023013 Name: PARAFIELD AIRPORT Lat: -34.80 Lon: 138.63 Height: 9.5 m
Data from the previous 72 hours. | See also: Recent months at Parafield
Date/Time
CDT
Temp
°C
App
Temp
°C
Dew
Point
°C
Rel
Hum
%
Delta-T
°C
Wind Press
QNH
hPa
Press
MSL
hPa
Rain since
9am
mm
Dir  Spd
km/h
Gust
km/h
Spd
kts
Gust
kts
27/07:30am 13.2 13.1 9.3 77 2.0 CALM 0 0 0 0 1017.8 1017.8 0.0
27/07:00am 12.3 12.0 8.6 78 1.8 CALM 0 7 0 4 1017.8 1017.8 0.0
27/06:30am 11.5 10.9 7.6 77 1.9 CALM 0 0 0 0 1017.7 1017.7 0.0
27/06:00am 12.2 11.8 8.3 77 1.9 CALM 0 0 0 0 1017.5 1017.5 0.0
27/05:30am 12.5 11.2 9.1 80 1.7 NE 6 9 3 5 1017.3 1017.3 0.0
27/05:00am 11.9 10.4 8.4 79 1.7 NNE 6 7 3 4 1017.2 1017.2 0.0
27/04:30am 12.2 10.5 8.3 77 1.9 NE 7 9 4 5 1017.4 1017.4 0.0
27/04:00am 12.5 11.1 8.8 78 1.8 NNE 6 7 3 4 1017.5 1017.5 0.0
27/03:30am 13.0 12.8 9.1 77 2.0 CALM 0 0 0 0 1017.6 1017.6 0.0
27/03:00am 13.4 11.7 8.3 71 2.5 ENE 7 9 4 5 1017.7 1017.7 0.0
27/02:30am 12.9 12.7 9.0 77 2.0 CALM 0 0 0 0 1017.8 1017.8 0.0
27/02:00am 13.0 12.7 8.5 74 2.2 CALM 0 0 0 0 1017.9 1017.9 0.0
27/01:30am 15.2 15.1 9.3 68 3.0 CALM 0 0 0 0 1018.1 1018.1 0.0
27/01:00am 16.3 15.0 9.3 63 3.6 W 6 7 3 4 1018.1 1018.1 0.0
27/12:30am 15.0 12.6 8.7 66 3.2 WNW 11 13 6 7 1018.0 1018.0 0.0
27/12:00am 17.3 16.9 8.4 56 4.5 CALM 0 0 0 0 1017.9 1017.9 0.0
 
Date/Time
CDT
Temp
°C
App
Temp
°C
Dew
Point
°C
Rel
Hum
%
Delta-T
°C
Wind Press
QNH
hPa
Press
MSL
hPa
Rain since
9am
mm
Dir  Spd
km/h
Gust
km/h
Spd
kts
Gust
kts
26/11:30pm 19.0 17.2 7.8 48 5.7 SSE 7 9 4 5 1017.9 1017.9 0.0
26/11:00pm 19.1 16.5 7.8 48 5.8 SE 11 13 6 7 1018.0 1018.0 0.0
26/10:30pm 18.6 17.8 8.3 51 5.3 SSW 2 7 1 4 1018.1 1018.1 0.0
26/10:00pm 19.6 18.2 8.9 50 5.6 E 6 11 3 6 1018.2 1018.2 0.0
26/09:30pm 20.0 17.9 9.6 51 5.5 SE 11 15 6 8 1018.0 1018.0 0.0
26/09:00pm 21.1 18.6 9.7 48 6.1 ESE 13 19 7 10 1017.7 1017.7 0.0
26/08:30pm 21.3 20.8 12.7 58 4.9 SW 7 9 4 5 1017.4 1017.4 0.0
26/08:00pm 21.4 19.9 12.0 55 5.3 SW 11 13 6 7 1017.1 1017.1 0.0
26/07:30pm 23.5 21.2 11.9 48 6.6 SW 15 19 8 10 1016.9 1016.9 0.0
26/07:00pm 24.6 22.5 12.5 46 7.0 SW 15 19 8 10 1016.7 1016.7 0.0
26/06:30pm 25.4 22.2 11.2 41 8.0 SW 19 22 10 12 1016.7 1016.7 0.0
26/06:00pm 26.0 22.4 9.8 36 8.9 SW 19 22 10 12 1016.8 1016.8 0.0
26/05:30pm 26.4 22.5 9.3 34 9.4 SW 20 24 11 13 1016.6 1016.6 0.0
26/05:00pm 26.8 23.4 9.2 33 9.7 SW 17 22 9 12 1016.6 1016.6 0.0
26/04:30pm 26.5 22.8 9.4 34 9.4 SW 19 28 10 15 1016.8 1016.8 0.0
26/04:00pm 26.7 23.4 9.5 34 9.5 SW 17 24 9 13 1016.9 1016.9 0.0
26/03:30pm 26.5 23.3 11.4 39 8.6 WSW 19 26 10 14 1017.1 1017.1 0.0
26/03:00pm 25.7 22.1 10.7 39 8.4 WSW 20 28 11 15 1017.4 1017.4 0.0
26/02:30pm 26.1 22.5 10.7 38 8.6 W 20 28 11 15 1017.7 1017.7 0.0
26/02:00pm 26.3 23.6 8.8 33 9.5 WSW 13 20 7 11 1018.0 1018.0 0.0
26/01:30pm 25.0 22.3 8.9 36 8.7 SW 13 20 7 11 1018.5 1018.5 0.0
26/01:00pm 25.0 22.3 8.9 36 8.7 WSW 13 20 7 11 1018.7 1018.7 0.0
26/12:30pm 24.6 22.0 7.7 34 8.9 WSW 11 20 6 11 1019.2 1019.2 0.0
26/12:00pm 23.5 20.4 7.2 35 8.5 WSW 13 17 7 9 1019.5 1019.5 0.0
26/11:30am 22.5 19.9 7.9 39 7.6 W 11 15 6 8 1019.7 1019.7 0.0
26/11:00am 22.0 20.1 7.4 39 7.6 WSW 7 15 4 8 1020.0 1020.0 0.0
26/10:30am 21.0 19.0 7.3 41 7.0 S 7 15 4 8 1020.3 1020.3 0.0
26/10:00am 19.6 17.4 6.4 42 6.6 S 7 15 4 8 1020.5 1020.5 0.0
26/09:30am 19.4 16.4 7.5 46 6.0 SE 13 20 7 11 1020.7 1020.7 0.0
26/09:00am 18.1 15.7 7.2 49 5.5 ESE 9 13 5 7 1020.8 1020.8 0.0
26/08:30am 15.9 14.9 7.4 57 4.2 SSW 2 7 1 4 1020.6 1020.6 0.0
26/08:00am 13.6 13.2 8.4 71 2.6 CALM 0 0 0 0 1020.5 1020.5 0.0
26/07:30am 11.7 11.0 7.0 73 2.2 CALM 0 0 0 0 1020.2 1020.2 0.0
26/07:00am 10.9 8.6 5.9 71 2.3 E 7 9 4 5 1019.9 1019.9 0.0
26/06:30am 13.3 10.7 5.9 61 3.5 SE 9 11 5 6 1019.7 1019.7 0.0
26/06:00am 13.7 11.1 6.3 61 3.5 E 9 13 5 7 1019.4 1019.4 0.0
26/05:30am 13.2 10.0 6.8 65 3.1 ENE 13 20 7 11 1019.2 1019.2 0.0
26/05:00am 12.6 11.4 6.4 66 2.9 S 2 7 1 4 1019.1 1019.1 0.0
26/04:30am 12.8 10.0 6.8 67 2.9 SSE 11 13 6 7 1019.2 1019.2 0.0
26/04:00am 14.1 12.1 7.2 63 3.4 SSE 7 11 4 6 1019.4 1019.4 0.0
26/03:30am 14.9 13.5 7.2 60 3.8 SE 4 9 2 5 1019.6 1019.6 0.0
26/03:00am 15.6 11.9 8.1 61 3.8 SSE 17 24 9 13 1019.5 1019.5 0.0
26/02:30am 15.5 13.5 8.5 63 3.5 SW 9 15 5 8 1019.8 1019.8 0.0
26/02:00am 15.8 12.7 9.0 64 3.5 SE 15 26 8 14 1019.8 1019.8 0.0
26/01:30am 15.9 13.4 9.8 67 3.2 SE 13 28 7 15 1020.2 1020.2 0.0
26/01:00am 15.8 13.7 9.9 68 3.1 SSE 11 24 6 13 1020.5 1020.5 0.0
26/12:30am 15.8 13.2 9.2 65 3.4 SE 13 22 7 12 1020.8 1020.8 0.0
26/12:00am 15.4 13.5 8.9 65 3.3 ESE 9 13 5 7 1021.1 1021.1 0.0
 
Date/Time
CDT
Temp
°C
App
Temp
°C
Dew
Point
°C
Rel
Hum
%
Delta-T
°C
Wind Press
QNH
hPa
Press
MSL
hPa
Rain since
9am
mm
Dir  Spd
km/h
Gust
km/h
Spd
kts
Gust
kts
25/11:30pm 15.0 13.5 9.1 68 3.0 SSW 7 11 4 6 1021.5 1021.5 0.0
25/11:00pm 15.6 12.8 9.9 69 3.0 SSE 15 20 8 11 1021.7 1021.6 0.0
25/10:30pm 15.9 13.0 9.8 67 3.2 SE 15 22 8 12 1021.8 1021.7 0.0
25/10:00pm 15.9 12.7 10.0 68 3.1 SSE 17 20 9 11 1022.1 1022.0 0.0
25/09:30pm 16.4 11.8 9.6 64 3.5 SSE 24 33 13 18 1022.5 1022.4 0.0
25/09:00pm 16.7 13.4 9.6 63 3.7 SSE 17 22 9 12 1021.9 1021.8 0.0
25/08:30pm 17.8 14.0 9.9 60 4.2 SSE 20 28 11 15 1021.8 1021.7 0.0
25/08:00pm 18.3 14.7 9.9 58 4.5 SSE 19 24 10 13 1021.5 1021.5 0.0
25/07:30pm 19.6 15.4 9.8 53 5.2 SSE 22 30 12 16 1021.1 1021.1 0.0
25/07:00pm 20.9 16.9 9.2 47 6.2 SE 20 28 11 15 1020.8 1020.8 0.0
25/06:30pm 21.7 16.8 8.6 43 6.9 SSE 24 30 13 16 1020.9 1020.9 0.0
25/06:00pm 22.5 17.8 7.9 39 7.6 SSE 22 32 12 17 1020.8 1020.8 0.0
25/05:30pm 23.5 19.3 8.4 38 8.0 SSE 20 32 11 17 1020.8 1020.8 0.0
25/05:00pm 24.0 19.8 8.4 37 8.3 SE 20 32 11 17 1020.9 1020.9 0.0
25/04:30pm 24.4 20.1 8.0 35 8.7 SE 20 30 11 16 1021.1 1021.1 0.0
25/04:00pm 24.7 20.8 8.6 36 8.6 SSE 19 30 10 16 1021.3 1021.3 0.0
25/03:30pm 24.8 20.6 7.4 33 9.1 SSE 19 28 10 15 1021.5 1021.5 0.0
25/03:00pm 24.3 21.1 8.3 36 8.5 SSE 15 26 8 14 1022.0 1021.9 0.0
25/02:30pm 24.0 21.0 7.6 35 8.6 SSE 13 24 7 13 1022.5 1022.4 0.0
25/02:00pm 24.6 21.0 8.5 36 8.6 S 17 28 9 15 1022.9 1022.8 0.0
25/01:30pm 23.3 19.9 7.8 37 8.1 SSE 15 26 8 14 1023.3 1023.2 0.0
25/01:00pm 22.7 19.5 8.4 40 7.6 S 15 22 8 12 1023.7 1023.6 0.0
25/12:30pm 23.1 20.1 9.1 41 7.5 SE 15 32 8 17 1024.1 1024.0 0.0
25/12:00pm 22.1 19.0 8.9 43 7.0 SE 15 20 8 11 1024.6 1024.5 0.0
25/11:30am 21.3 17.5 9.2 46 6.4 ESE 19 28 10 15 1025.0 1024.9 0.0
25/11:00am 21.0 17.3 9.6 48 6.1 SE 19 30 10 16 1025.3 1025.2 0.0
25/10:30am 20.3 15.5 8.9 48 6.0 ESE 24 32 13 17 1025.3 1025.2 0.0
25/10:00am 19.2 14.0 8.8 51 5.4 SE 26 35 14 19 1025.4 1025.3 0.0
25/09:30am 18.5 13.7 8.7 53 5.1 ESE 24 41 13 22 1025.3 1025.2 0.0
25/09:00am 17.8 12.5 8.6 55 4.7 ESE 26 39 14 21 1025.2 1025.1 0.0
25/08:30am 16.9 11.3 8.6 58 4.2 ESE 28 37 15 20 1025.1 1025.0 0.0
25/08:00am 15.9 11.4 8.6 62 3.7 ESE 22 32 12 17 1024.8 1024.7 0.0
25/07:30am 14.9 10.9 9.1 68 2.9 SE 20 32 11 17 1024.7 1024.6 0.0
25/07:00am 14.7 10.3 8.9 68 2.9 SE 22 35 12 19 1024.4 1024.3 0.0
25/06:30am 14.9 11.0 9.3 69 2.9 SE 20 28 11 15 1024.2 1024.1 0.0
25/06:00am 15.1 11.3 9.0 67 3.1 SE 19 28 10 15 1024.1 1024.0 0.0
25/05:30am 15.2 10.8 9.1 67 3.1 SE 22 35 12 19 1023.6 1023.5 0.0
25/05:00am 15.3 10.8 10.1 71 2.7 SE 24 32 13 17 1023.5 1023.4 0.0
25/04:30am 15.5 10.8 10.5 72 2.6 ESE 26 35 14 19 1023.5 1023.4 0.0
25/04:00am 15.4 12.3 10.2 71 2.7 SE 17 26 9 14 1023.7 1023.6 0.0
25/03:30am 15.3 12.9 9.9 70 2.8 SE 13 22 7 12 1024.0 1023.9 0.0
25/03:00am 15.3 12.9 10.1 71 2.7 SSE 13 24 7 13 1024.0 1023.9 0.0
25/02:30am 15.1 13.0 9.9 71 2.7 SE 11 17 6 9 1024.3 1024.2 0.0
25/02:00am 14.8 13.2 10.2 74 2.4 SSE 9 15 5 8 1024.5 1024.4 0.0
25/01:30am 15.1 13.6 10.5 74 2.4 SSE 9 20 5 11 1024.6 1024.5 0.0
25/01:00am 14.3 12.5 9.5 73 2.5 SSW 9 11 5 6 1024.8 1024.7 0.0
25/12:30am 13.9 12.6 9.3 74 2.3 SE 6 9 3 5 1025.1 1025.0 0.0
25/12:00am 14.5 13.1 9.7 73 2.5 S 7 11 4 6 1025.2 1025.1 0.0
 
Date/Time
CDT
Temp
°C
App
Temp
°C
Dew
Point
°C
Rel
Hum
%
Delta-T
°C
Wind Press
QNH
hPa
Press
MSL
hPa
Rain since
9am
mm
Dir  Spd
km/h
Gust
km/h
Spd
kts
Gust
kts
24/11:30pm 15.4 13.0 10.0 70 2.8 SSE 13 17 7 9 1025.4 1025.3 0.0
24/11:00pm 15.7 13.3 10.2 70 2.9 SSE 13 17 7 9 1025.8 1025.7 0.0
24/10:30pm 16.3 12.9 10.4 68 3.1 S 19 26 10 14 1025.8 1025.7 0.0
24/10:00pm 16.5 13.1 10.4 67 3.2 S 19 28 10 15 1026.0 1025.9 0.0
24/09:30pm 16.7 13.1 9.9 64 3.6 S 19 26 10 14 1025.9 1025.8 0.0
24/09:00pm 16.9 13.2 9.3 61 3.9 S 19 26 10 14 1025.8 1025.7 0.0
24/08:30pm 17.1 12.7 9.0 59 4.2 S 22 28 12 15 1025.7 1025.6 0.0
24/08:00pm 17.7 13.3 8.8 56 4.6 SSE 22 30 12 16 1025.5 1025.4 0.0
24/07:30pm 18.6 13.4 8.8 53 5.1 S 26 33 14 18 1025.1 1025.0 0.0
24/07:00pm 19.4 14.7 9.3 52 5.3 SSE 24 33 13 18 1024.9 1024.8 0.0
24/06:30pm 20.6 15.6 9.5 49 5.9 S 26 35 14 19 1024.6 1024.5 0.0
24/06:00pm 21.7 16.3 9.6 46 6.5 SSE 28 37 15 20 1024.3 1024.2 0.0
24/05:30pm 22.1 16.9 8.9 43 7.0 SSE 26 37 14 20 1024.2 1024.1 0.0
24/05:00pm 23.6 18.1 9.2 40 7.8 SSE 28 37 15 20 1023.9 1023.8 0.0
24/04:30pm 24.1 19.2 8.5 37 8.3 SSE 24 41 13 22 1023.7 1023.6 0.0
24/04:00pm 24.8 20.9 9.5 38 8.4 SE 20 33 11 18 1023.7 1023.6 0.0
24/03:30pm 24.7 20.8 9.4 38 8.3 SSE 20 30 11 16 1023.9 1023.8 0.0
24/03:00pm 25.2 21.4 9.9 38 8.4 SSE 20 28 11 15 1024.1 1024.0 0.0
24/02:30pm 24.7 21.8 9.8 39 8.1 S 15 26 8 14 1024.4 1024.3 0.0
24/02:00pm 24.5 20.8 9.6 39 8.1 SSW 19 28 10 15 1024.8 1024.7 0.0
24/01:30pm 23.9 21.6 9.1 39 7.9 SSE 11 19 6 10 1025.0 1024.9 0.0
24/01:00pm 23.6 20.2 9.2 40 7.8 SE 17 24 9 13 1025.3 1025.2 0.0
24/12:30pm 23.0 20.9 9.8 43 7.1 SW 11 22 6 12 1025.7 1025.6 0.0
24/12:00pm 22.3 19.6 9.1 43 7.0 SSW 13 20 7 11 1026.0 1025.9 0.0
24/11:30am 21.3 18.7 9.5 47 6.3 S 13 22 7 12 1026.3 1026.2 0.0
24/11:00am 20.7 18.4 9.0 47 6.2 SE 11 22 6 12 1026.7 1026.6 0.0
24/10:30am 20.1 17.9 9.4 50 5.6 SSE 11 19 6 10 1026.7 1026.6 0.0
24/10:00am 20.1 16.8 9.7 51 5.6 SSE 17 24 9 13 1026.8 1026.7 0.0
24/09:30am 18.8 16.2 9.3 54 5.0 SE 13 26 7 14 1026.8 1026.7 0.0
24/09:00am 17.6 16.8 9.8 60 4.1 SSE 4 9 2 5 1026.6 1026.5 0.0
24/08:30am 15.7 15.9 10.5 71 2.7 CALM 0 0 0 0 1026.4 1026.3 0.0
24/08:00am 13.3 13.7 11.2 87 1.1 CALM 0 0 0 0 1026.2 1026.1 0.0

Latest Capital City Observations: Canberra | Sydney | Melbourne | Brisbane | Adelaide | Perth | Hobart | Darwin

Other Formats:

Comma delimited format used in spreadsheet applications
http://www.bom.gov.au/fwo/IDS60901/IDS60901.95677.axf

JavaScript Object Notation format (JSON) in row-major order
http://www.bom.gov.au/fwo/IDS60901/IDS60901.95677.json